Time;durP1;ratioP1;P1;durP2;ratioP2;P2;SDS_P1;SDS_P2;PMS_P1;PMS_P2;Temp;Humidity;BMP_temperature;BMP_pressure;BME280_temperature;BME280_humidity;BME280_pressure;Samples;Min_cycle;Max_cycle;Signal;HPM_P1;HPM_P2
2022/01/16 00:01:07;;;;;;;56.47;21.70;;;-0.70;99.90;;;;;;5040578;28;20099;-79
2022/01/16 00:06:18;;;;;;;55.05;21.58;;;-0.80;99.90;;;;;;5035108;28;20064;-79
2022/01/16 00:08:44;;;;;;;51.93;20.70;;;-0.80;99.90;;;;;;5030331;28;20053;-79
2022/01/16 00:11:11;;;;;;;48.60;19.27;;;-0.80;99.90;;;;;;5028863;28;20048;-79
2022/01/16 00:13:37;;;;;;;54.57;20.00;;;-0.80;99.90;;;;;;5029959;28;20025;-79
2022/01/16 00:16:03;;;;;;;52.67;18.97;;;-0.90;99.90;;;;;;5028845;28;20037;-79
2022/01/16 00:18:40;;;;;;;46.63;20.07;;;-0.90;99.90;;;;;;5030664;28;20025;-79
2022/01/16 00:21:05;;;;;;;57.50;20.03;;;-0.90;99.90;;;;;;5047191;28;20109;-79
2022/01/16 00:23:31;;;;;;;61.90;19.63;;;-0.90;99.90;;;;;;5053182;28;20033;-79
2022/01/16 00:25:57;;;;;;;45.57;19.17;;;-0.90;99.90;;;;;;5053093;28;20739;-78
2022/01/16 00:28:24;;;;;;;61.50;20.00;;;-0.90;99.90;;;;;;5048467;28;20090;-79
2022/01/16 00:30:50;;;;;;;60.47;20.73;;;-0.90;99.90;;;;;;5033502;28;20060;-79
2022/01/16 00:33:17;;;;;;;74.57;20.40;;;-0.90;99.90;;;;;;5033133;28;20041;-79
2022/01/16 00:35:43;;;;;;;67.20;20.03;;;-1.00;99.90;;;;;;5032929;28;20053;-79
2022/01/16 00:38:08;;;;;;;57.63;19.70;;;-1.00;99.90;;;;;;5035751;28;20410;-79
2022/01/16 00:40:34;;;;;;;50.67;18.23;;;-1.00;99.90;;;;;;5052807;28;20029;-79
2022/01/16 00:43:00;;;;;;;45.90;18.50;;;-1.10;99.90;;;;;;5053654;28;20032;-79
2022/01/16 00:45:29;;;;;;;81.50;20.23;;;-1.00;99.90;;;;;;5053736;28;20021;-79
2022/01/16 00:47:54;;;;;;;43.50;18.33;;;-1.10;99.90;;;;;;5053347;28;20028;-78
2022/01/16 00:50:20;;;;;;;46.70;19.20;;;-1.10;99.90;;;;;;5034768;28;20029;-78
2022/01/16 00:52:46;;;;;;;64.10;18.37;;;-1.10;99.90;;;;;;5033720;28;20067;-78
2022/01/16 00:55:11;;;;;;;51.13;19.90;;;-1.00;99.90;;;;;;5034141;28;20383;-78
2022/01/16 00:57:37;;;;;;;73.30;18.83;;;-1.00;99.90;;;;;;5034449;28;20033;-78
2022/01/16 01:00:04;;;;;;;60.67;18.87;;;-1.10;99.90;;;;;;5035327;28;20049;-78
2022/01/16 01:02:30;;;;;;;61.87;18.97;;;-1.10;99.90;;;;;;5033272;28;20026;-78
2022/01/16 01:04:55;;;;;;;77.03;19.30;;;-1.10;99.90;;;;;;5031891;28;20021;-77
2022/01/16 01:07:21;;;;;;;58.50;18.53;;;-1.10;99.90;;;;;;5031418;28;20585;-78
2022/01/16 01:09:47;;;;;;;49.73;19.10;;;-1.10;99.90;;;;;;5050562;28;20119;-78
2022/01/16 01:12:24;;;;;;;53.83;18.83;;;-1.10;99.90;;;;;;5053311;28;20060;-79
2022/01/16 01:15:09;;;;;;;52.53;17.60;;;-1.10;99.90;;;;;;5053625;28;20035;-78
2022/01/16 01:17:43;;;;;;;45.75;18.50;;;-1.10;99.90;;;;;;5050569;28;20025;-79
2022/01/16 01:20:11;;;;;;;50.78;19.38;;;-1.10;99.90;;;;;;5033409;28;20394;-78
2022/01/16 01:22:37;;;;;;;43.70;17.40;;;-1.10;99.90;;;;;;5033145;28;20075;-80
2022/01/16 01:25:02;;;;;;;52.90;18.60;;;-1.10;99.90;;;;;;5033903;28;20025;-79
2022/01/16 01:27:31;;;;;;;73.37;19.63;;;-1.10;99.90;;;;;;5034917;28;20033;-76
2022/01/16 01:30:06;;;;;;;75.37;18.43;;;-1.10;99.90;;;;;;5034888;28;20031;-76
2022/01/16 01:32:39;;;;;;;;;;;-1.10;99.90;;;;;;5035788;28;20033;-76
2022/01/16 01:35:07;;;;;;;60.70;18.17;;;-1.10;99.90;;;;;;5035269;28;20354;-76
2022/01/16 01:37:33;;;;;;;76.03;17.97;;;-1.10;99.90;;;;;;5037959;28;20434;-76
2022/01/16 01:39:58;;;;;;;122.50;18.47;;;-1.10;99.90;;;;;;5035960;28;20087;-76
2022/01/16 01:42:31;;;;;;;63.53;19.63;;;-1.10;99.90;;;;;;5033670;28;20057;-76
2022/01/16 01:53:13;;;;;;;62.80;18.47;;;-1.10;99.90;;;;;;5034792;28;20029;-75
2022/01/16 01:55:42;;;;;;;55.43;17.73;;;-1.10;99.90;;;;;;5033267;28;20111;-75
2022/01/16 01:58:08;;;;;;;55.73;17.90;;;-1.10;99.90;;;;;;5034296;28;20041;-75
2022/01/16 02:00:33;;;;;;;48.27;17.83;;;-1.10;99.90;;;;;;5034581;28;20056;-75
2022/01/16 02:05:24;;;;;;;60.17;18.33;;;-1.10;99.90;;;;;;5034679;28;20397;-76
2022/01/16 02:07:50;;;;;;;59.20;18.20;;;-1.10;99.90;;;;;;5034135;28;20390;-76
2022/01/16 02:10:16;;;;;;;60.33;19.63;;;-1.10;99.90;;;;;;5034689;28;20370;-76
2022/01/16 02:12:44;;;;;;;55.57;18.77;;;-1.10;99.90;;;;;;5034239;28;20536;-77
2022/01/16 02:15:38;;;;;;;51.90;17.87;;;-1.10;99.90;;;;;;5032726;28;20500;-77
2022/01/16 02:30:18;;;;;;;48.47;18.77;;;-1.10;99.90;;;;;;5033657;28;20106;-77
2022/01/16 02:34:40;;;;;;;35.20;16.40;;;-1.10;99.90;;;;;;5033729;28;20095;-77
2022/01/16 02:37:09;;;;;;;38.77;17.30;;;-1.10;99.90;;;;;;5032768;28;20029;-77
2022/01/16 02:39:38;;;;;;;39.60;17.73;;;-1.10;99.90;;;;;;5033938;28;20025;-77
2022/01/16 02:42:06;;;;;;;40.00;18.40;;;-1.10;99.90;;;;;;5031778;28;20516;-77
2022/01/16 02:44:35;;;;;;;40.10;18.07;;;-1.10;99.90;;;;;;5033429;28;20057;-77
2022/01/16 02:47:02;;;;;;;45.53;18.40;;;-1.10;99.90;;;;;;5033860;28;20068;-77
2022/01/16 02:49:33;;;;;;;42.67;19.43;;;-1.10;99.90;;;;;;5033467;28;20021;-77
2022/01/16 02:52:03;;;;;;;56.73;20.70;;;-1.10;99.90;;;;;;5033665;28;20420;-77
2022/01/16 02:54:34;;;;;;;50.77;20.40;;;-1.10;99.90;;;;;;5033058;28;20425;-77
2022/01/16 02:57:00;;;;;;;55.87;20.93;;;-1.10;99.90;;;;;;5033042;28;20030;-77
2022/01/16 02:59:26;;;;;;;60.43;21.13;;;-1.10;99.90;;;;;;5032217;28;20040;-77
2022/01/16 03:01:51;;;;;;;56.40;21.17;;;-1.10;99.90;;;;;;5033252;28;20086;-77
2022/01/16 03:04:17;;;;;;;50.80;20.93;;;-1.10;99.90;;;;;;5032655;28;20034;-77
2022/01/16 03:06:42;;;;;;;48.70;21.43;;;-1.10;99.90;;;;;;5033291;28;20462;-77
2022/01/16 03:09:09;;;;;;;45.07;20.83;;;-1.10;99.90;;;;;;5033249;28;20474;-77
2022/01/16 03:11:39;;;;;;;43.40;19.83;;;-1.10;99.90;;;;;;5031969;28;20053;-77
2022/01/16 03:14:13;;;;;;;45.80;20.20;;;-1.10;99.90;;;;;;5033473;28;20056;-78
2022/01/16 03:16:43;;;;;;;49.73;20.23;;;-1.10;99.90;;;;;;5032863;28;20108;-76
2022/01/16 03:21:57;;;;;;;49.00;20.83;;;-1.10;99.90;;;;;;5033252;28;20044;-76
2022/01/16 03:24:33;;;;;;;50.00;21.87;;;-1.10;99.90;;;;;;5033289;28;20032;-76
2022/01/16 03:27:20;;;;;;;51.73;21.70;;;-1.10;99.90;;;;;;5032921;28;20095;-76
2022/01/16 03:29:50;;;;;;;53.10;21.27;;;-1.10;99.90;;;;;;5030861;28;20034;-77
2022/01/16 03:32:19;;;;;;;52.30;21.57;;;-1.10;99.90;;;;;;5031556;28;20474;-78
2022/01/16 03:34:46;;;;;;;57.73;22.90;;;-1.10;99.90;;;;;;5031418;28;20057;-78
2022/01/16 03:37:12;;;;;;;58.83;23.60;;;-1.10;99.90;;;;;;5032757;28;20064;-77
2022/01/16 03:39:38;;;;;;;60.90;23.87;;;-1.10;99.90;;;;;;5033107;28;20036;-78
2022/01/16 03:42:04;;;;;;;61.70;24.67;;;-1.10;99.90;;;;;;5032735;28;20030;-78
2022/01/16 03:44:30;;;;;;;53.00;23.20;;;-1.10;99.90;;;;;;5032462;28;20030;-78
2022/01/16 03:46:56;;;;;;;53.43;23.17;;;-1.10;99.90;;;;;;5031522;28;20096;-78
2022/01/16 03:49:26;;;;;;;75.70;24.23;;;-1.10;99.90;;;;;;5032620;28;20400;-75
2022/01/16 03:51:53;;;;;;;58.83;24.43;;;-1.00;99.90;;;;;;5032587;28;20057;-76
2022/01/16 03:54:22;;;;;;;54.37;23.13;;;-1.10;99.90;;;;;;5034580;28;20111;-76
2022/01/16 03:56:48;;;;;;;65.73;24.80;;;-1.00;99.90;;;;;;5035261;28;20037;-77
2022/01/16 03:59:14;;;;;;;58.60;24.73;;;-1.00;99.90;;;;;;5036682;28;20044;-76
2022/01/16 04:01:41;;;;;;;65.93;24.47;;;-1.00;99.90;;;;;;5036400;28;20036;-76
2022/01/16 04:04:07;;;;;;;49.73;25.20;;;-1.00;99.90;;;;;;5036444;28;20037;-76
2022/01/16 04:06:33;;;;;;;54.57;25.47;;;-1.00;99.90;;;;;;5036452;28;20025;-76
2022/01/16 04:08:59;;;;;;;58.63;26.33;;;-1.00;99.90;;;;;;5036362;28;20036;-78
2022/01/16 04:11:26;;;;;;;52.83;25.67;;;-1.00;99.90;;;;;;5036516;28;20025;-78
2022/01/16 04:14:05;;;;;;;53.17;25.57;;;-1.00;99.90;;;;;;5036223;28;20447;-77
2022/01/16 04:16:31;;;;;;;59.80;25.77;;;-0.90;99.90;;;;;;5036319;28;20092;-78
2022/01/16 04:18:57;;;;;;;53.63;24.57;;;-1.00;99.90;;;;;;5036269;28;20108;-78
2022/01/16 04:21:25;;;;;;;55.33;24.23;;;-0.90;99.90;;;;;;5036225;28;20075;-77
2022/01/16 04:23:51;;;;;;;46.40;23.40;;;-0.90;99.90;;;;;;5034814;28;20056;-76
2022/01/16 04:26:19;;;;;;;46.40;23.87;;;-0.90;99.90;;;;;;5036013;28;20026;-76
2022/01/16 04:28:46;;;;;;;44.43;23.20;;;-0.80;99.90;;;;;;5034987;28;20029;-77
2022/01/16 04:31:13;;;;;;;43.77;23.33;;;-0.80;99.90;;;;;;5036763;28;20028;-77
2022/01/16 04:33:39;;;;;;;49.27;23.90;;;-0.80;99.90;;;;;;5035798;28;20107;-76
2022/01/16 04:36:05;;;;;;;50.33;24.47;;;-0.80;99.90;;;;;;5035889;28;20455;-76
2022/01/16 04:38:33;;;;;;;49.83;23.87;;;-0.80;99.90;;;;;;5036461;28;20351;-76
2022/01/16 04:43:51;;;;;;;47.53;24.43;;;-0.90;99.90;;;;;;5035733;28;20032;-76
2022/01/16 04:46:27;;;;;;;49.23;25.03;;;-0.90;99.90;;;;;;5036277;28;20021;-78
2022/01/16 04:48:55;;;;;;;46.00;23.87;;;-0.80;99.90;;;;;;5036183;28;20022;-78
2022/01/16 04:51:21;;;;;;;46.33;24.30;;;-0.90;99.90;;;;;;5035898;28;20566;-77
2022/01/16 04:53:47;;;;;;;42.20;23.43;;;-0.80;99.90;;;;;;5034912;28;20034;-77
2022/01/16 04:56:13;;;;;;;45.77;25.17;;;-0.80;99.90;;;;;;5035530;28;20033;-78
2022/01/16 04:58:40;;;;;;;42.83;23.43;;;-0.80;99.90;;;;;;5035382;28;20026;-77
2022/01/16 05:01:06;;;;;;;41.73;23.13;;;-0.80;99.90;;;;;;5036281;28;20435;-77
2022/01/16 05:03:33;;;;;;;40.77;23.83;;;-0.80;99.90;;;;;;5035271;28;20034;-77
2022/01/16 05:05:59;;;;;;;45.97;25.93;;;-0.80;99.90;;;;;;5033797;28;20131;-77
2022/01/16 05:08:26;;;;;;;42.60;23.87;;;-0.80;99.90;;;;;;5035429;28;20025;-77
2022/01/16 05:10:55;;;;;;;43.10;24.60;;;-0.80;99.90;;;;;;5035478;28;20064;-77
2022/01/16 05:18:32;;;;;;;39.03;23.55;;;-0.80;99.90;;;;;;5035191;28;20113;-77
2022/01/16 05:20:58;;;;;;;33.50;21.43;;;-0.80;99.90;;;;;;5033979;28;20442;-77
2022/01/16 05:23:23;;;;;;;32.67;22.00;;;-0.80;99.90;;;;;;5035651;28;20025;-77
2022/01/16 05:25:49;;;;;;;36.23;23.23;;;-0.80;99.90;;;;;;5027444;28;20025;-79
2022/01/16 05:28:14;;;;;;;35.17;22.27;;;-0.90;99.90;;;;;;5025345;28;20020;-78
2022/01/16 05:30:40;;;;;;;33.80;22.00;;;-0.90;99.90;;;;;;5037275;28;20373;-78
2022/01/16 05:33:07;;;;;;;35.33;22.33;;;-0.90;99.90;;;;;;5050171;28;20021;-78
2022/01/16 05:35:32;;;;;;;35.77;22.93;;;-0.90;99.90;;;;;;5036913;28;20041;-78
2022/01/16 05:37:58;;;;;;;34.37;23.23;;;-0.90;99.90;;;;;;5038018;28;20025;-78
2022/01/16 05:40:24;;;;;;;39.03;24.40;;;-0.90;99.90;;;;;;5041507;28;20478;-78
2022/01/16 05:42:49;;;;;;;38.80;23.63;;;-0.80;99.90;;;;;;5033910;28;20025;-78
2022/01/16 05:45:15;;;;;;;39.07;24.47;;;-0.90;99.90;;;;;;5035732;28;20414;-78
2022/01/16 05:47:40;;;;;;;40.47;24.77;;;-0.90;99.90;;;;;;5033080;28;20026;-79
2022/01/16 05:50:06;;;;;;;39.00;24.23;;;-0.90;99.90;;;;;;5036106;28;20528;-78
2022/01/16 05:52:32;;;;;;;41.37;24.80;;;-0.90;99.90;;;;;;5033239;28;20034;-78
2022/01/16 05:54:57;;;;;;;46.07;27.30;;;-0.90;99.90;;;;;;5035447;28;20032;-78
2022/01/16 05:57:23;;;;;;;39.17;25.73;;;-1.00;99.90;;;;;;5032496;28;20156;-79
2022/01/16 05:59:51;;;;;;;44.73;28.00;;;-1.00;99.90;;;;;;5031490;28;20041;-78
2022/01/16 06:02:16;;;;;;;48.70;27.47;;;-1.00;99.90;;;;;;5031585;28;20728;-78
2022/01/16 06:04:42;;;;;;;42.27;26.37;;;-1.00;99.90;;;;;;5029743;28;20025;-78
2022/01/16 06:07:07;;;;;;;42.83;26.80;;;-0.90;99.90;;;;;;5048834;28;20036;-78
2022/01/16 06:09:33;;;;;;;50.00;29.00;;;-1.00;99.90;;;;;;5032900;28;20067;-78
2022/01/16 06:11:59;;;;;;;46.33;26.53;;;-1.00;99.90;;;;;;5037846;28;20026;-79
2022/01/16 06:14:25;;;;;;;44.67;26.83;;;-1.00;99.90;;;;;;5036713;28;20018;-79
2022/01/16 06:16:52;;;;;;;42.93;26.47;;;-1.00;99.90;;;;;;5038340;28;20025;-79
2022/01/16 06:19:18;;;;;;;47.60;27.83;;;-1.00;99.90;;;;;;5029042;28;20022;-78
2022/01/16 06:21:44;;;;;;;42.97;27.23;;;-1.00;99.90;;;;;;5035268;28;20022;-77
2022/01/16 06:24:10;;;;;;;48.13;29.27;;;-1.00;99.90;;;;;;5028994;28;20378;-78
2022/01/16 06:26:35;;;;;;;45.53;27.90;;;-1.00;99.90;;;;;;5032573;28;20054;-79
2022/01/16 06:29:01;;;;;;;45.57;29.30;;;-0.90;99.90;;;;;;5033860;28;20092;-78
2022/01/16 06:31:26;;;;;;;45.57;28.10;;;-0.90;99.90;;;;;;5034227;28;20029;-78
2022/01/16 06:33:52;;;;;;;50.73;29.60;;;-0.90;99.90;;;;;;5038682;28;20049;-78
2022/01/16 06:36:18;;;;;;;48.00;28.60;;;-0.90;99.90;;;;;;5032493;28;20037;-77
2022/01/16 06:38:44;;;;;;;48.67;29.10;;;-0.90;99.90;;;;;;5034054;28;20032;-78
2022/01/16 06:41:10;;;;;;;48.70;29.00;;;-1.00;99.90;;;;;;5033710;28;20084;-76
2022/01/16 06:43:36;;;;;;;49.50;29.87;;;-0.90;99.90;;;;;;5027092;28;20443;-77
2022/01/16 06:46:01;;;;;;;49.80;29.90;;;-1.00;99.90;;;;;;5032296;28;20022;-76
2022/01/16 06:48:27;;;;;;;52.17;30.73;;;-1.00;99.90;;;;;;5033615;28;20034;-78
2022/01/16 06:50:53;;;;;;;50.50;30.57;;;-1.00;99.90;;;;;;5033605;28;20026;-78
2022/01/16 06:53:18;;;;;;;52.77;29.53;;;-1.00;99.90;;;;;;5045295;28;20025;-77
2022/01/16 06:55:44;;;;;;;54.20;32.67;;;-1.00;99.90;;;;;;5041179;28;20029;-73
2022/01/16 06:58:10;;;;;;;49.10;28.83;;;-1.10;99.90;;;;;;5033485;28;20022;-73
2022/01/16 07:00:35;;;;;;;51.73;30.50;;;-1.10;99.90;;;;;;5033755;28;20051;-74
2022/01/16 07:03:01;;;;;;;47.13;28.87;;;-1.10;99.90;;;;;;5033149;28;20029;-76
2022/01/16 07:05:26;;;;;;;48.23;30.37;;;-1.10;99.90;;;;;;5031734;28;20381;-74
2022/01/16 07:07:52;;;;;;;51.00;29.57;;;-1.20;99.90;;;;;;5033214;28;20119;-74
2022/01/16 07:10:18;;;;;;;56.57;32.73;;;-1.20;99.90;;;;;;5033237;28;20426;-73
2022/01/16 07:12:43;;;;;;;51.87;31.77;;;-1.20;99.90;;;;;;5031737;28;20040;-72
2022/01/16 07:15:10;;;;;;;49.20;30.10;;;-1.30;99.90;;;;;;5033329;28;20025;-72
2022/01/16 07:17:35;;;;;;;51.33;30.90;;;-1.30;99.90;;;;;;5032808;28;20055;-76
2022/01/16 07:20:02;;;;;;;49.07;30.57;;;-1.30;99.90;;;;;;5029484;28;20018;-77
2022/01/16 07:22:27;;;;;;;57.43;33.40;;;-1.40;99.90;;;;;;5028954;28;20476;-77
2022/01/16 07:24:53;;;;;;;55.57;31.93;;;-1.40;99.90;;;;;;5029852;28;20041;-76
2022/01/16 07:27:19;;;;;;;54.73;33.67;;;-1.40;99.90;;;;;;5029797;28;20027;-76
2022/01/16 07:29:45;;;;;;;55.17;32.50;;;-1.40;99.90;;;;;;5019928;28;20522;-76
2022/01/16 07:32:11;;;;;;;59.10;32.67;;;-1.50;99.90;;;;;;5029125;28;20020;-77
2022/01/16 07:34:36;;;;;;;56.07;31.70;;;-1.50;99.90;;;;;;5030437;28;20053;-77
2022/01/16 07:37:02;;;;;;;55.07;32.37;;;-1.50;99.90;;;;;;5039254;28;20056;-76
2022/01/16 07:39:28;;;;;;;55.80;32.40;;;-1.60;99.90;;;;;;5028472;28;20033;-76
2022/01/16 07:41:53;;;;;;;53.97;32.03;;;-1.60;99.90;;;;;;5035197;28;20068;-76
2022/01/16 07:44:19;;;;;;;52.50;32.27;;;-1.60;99.90;;;;;;5049615;28;20079;-76
2022/01/16 07:46:44;;;;;;;52.53;30.63;;;-1.60;99.90;;;;;;5050373;28;20024;-76
2022/01/16 07:49:10;;;;;;;52.17;29.77;;;-1.60;99.90;;;;;;5050206;28;20488;-77
2022/01/16 07:51:35;;;;;;;52.93;30.40;;;-1.60;99.90;;;;;;5042680;28;20064;-77
2022/01/16 07:54:01;;;;;;;48.83;30.23;;;-1.60;99.90;;;;;;5028843;28;20044;-77
2022/01/16 07:56:27;;;;;;;45.80;28.73;;;-1.60;99.90;;;;;;5031244;28;20042;-76
2022/01/16 07:58:53;;;;;;;52.17;31.20;;;-1.60;99.90;;;;;;5037803;28;20032;-77
2022/01/16 08:01:18;;;;;;;48.97;30.70;;;-1.60;99.90;;;;;;5044376;28;20037;-76
2022/01/16 08:03:44;;;;;;;49.13;29.03;;;-1.60;99.90;;;;;;5038001;28;20033;-77
2022/01/16 08:06:10;;;;;;;45.90;28.60;;;-1.60;99.90;;;;;;5031537;28;20461;-76
2022/01/16 08:08:37;;;;;;;44.33;26.87;;;-1.60;99.90;;;;;;5032517;28;20079;-76
2022/01/16 08:11:03;;;;;;;47.10;28.53;;;-1.50;99.90;;;;;;5032764;28;20018;-76
2022/01/16 08:13:28;;;;;;;44.67;26.57;;;-1.50;99.90;;;;;;5033027;28;20079;-77
2022/01/16 08:15:58;;;;;;;46.50;27.93;;;-1.50;99.90;;;;;;5032356;28;20374;-75
2022/01/16 08:18:24;;;;;;;43.63;26.87;;;-1.50;99.90;;;;;;5034098;28;20025;-76
2022/01/16 08:20:50;;;;;;;41.00;25.83;;;-1.50;99.90;;;;;;5036076;28;20025;-75
2022/01/16 08:23:15;;;;;;;40.45;26.40;;;-1.50;99.90;;;;;;5032892;28;20045;-75
2022/01/16 08:25:41;;;;;;;40.33;25.97;;;-1.40;99.90;;;;;;5032807;28;20026;-75
2022/01/16 08:28:07;;;;;;;40.03;27.20;;;-1.40;99.90;;;;;;5032794;28;20481;-72
2022/01/16 08:30:32;;;;;;;45.20;27.43;;;-1.40;99.90;;;;;;5031750;28;20067;-77
2022/01/16 08:32:58;;;;;;;42.10;26.87;;;-1.30;99.90;;;;;;5031849;28;20054;-73
2022/01/16 08:35:23;;;;;;;42.40;26.83;;;-1.30;99.90;;;;;;5031305;28;20046;-73
2022/01/16 08:37:49;;;;;;;39.17;25.07;;;-1.20;99.90;;;;;;5031764;28;20029;-72
2022/01/16 08:40:15;;;;;;;38.97;25.23;;;-1.20;99.90;;;;;;5034028;28;20029;-72
2022/01/16 08:42:41;;;;;;;35.97;23.03;;;-1.10;99.90;;;;;;5036392;28;20017;-73
2022/01/16 08:45:08;;;;;;;35.97;24.17;;;-1.10;99.90;;;;;;5035891;28;20055;-73
2022/01/16 08:47:33;;;;;;;38.97;25.10;;;-1.00;99.90;;;;;;5034499;28;20123;-73
2022/01/16 08:50:01;;;;;;;39.17;25.53;;;-0.90;99.90;;;;;;5035940;28;20462;-73
2022/01/16 08:52:27;;;;;;;42.17;25.83;;;-0.90;99.90;;;;;;5036298;28;20101;-73
2022/01/16 08:54:53;;;;;;;41.27;26.27;;;-0.80;99.90;;;;;;5035871;28;20025;-73
2022/01/16 08:57:18;;;;;;;43.60;27.23;;;-0.70;99.90;;;;;;5036104;28;20061;-73
2022/01/16 08:59:44;;;;;;;43.77;27.80;;;-0.60;99.90;;;;;;5035432;28;20037;-72
2022/01/16 09:02:09;;;;;;;46.57;26.60;;;-0.50;99.90;;;;;;5036017;28;20025;-72
2022/01/16 09:04:35;;;;;;;41.23;26.60;;;-0.40;99.90;;;;;;5036011;28;20033;-72
2022/01/16 09:07:00;;;;;;;46.87;27.87;;;-0.20;99.90;;;;;;5034182;28;20028;-72
2022/01/16 09:09:26;;;;;;;43.17;25.80;;;-0.20;99.90;;;;;;5034945;28;20022;-72
2022/01/16 09:11:52;;;;;;;43.73;25.70;;;0.00;99.90;;;;;;5035496;28;20017;-72
2022/01/16 09:14:17;;;;;;;41.33;25.40;;;0.00;99.90;;;;;;5035522;28;20021;-72
2022/01/16 09:16:43;;;;;;;41.03;26.03;;;0.10;99.90;;;;;;5035668;28;20037;-71
2022/01/16 09:19:08;;;;;;;42.60;25.27;;;0.20;99.90;;;;;;5035380;28;20033;-72
2022/01/16 09:21:34;;;;;;;43.53;25.63;;;0.30;99.90;;;;;;5035427;28;20026;-72
2022/01/16 09:24:00;;;;;;;42.53;26.00;;;0.40;99.90;;;;;;5033786;28;20021;-73
2022/01/16 09:26:26;;;;;;;43.57;26.10;;;0.40;99.90;;;;;;5035271;28;20025;-73
2022/01/16 09:28:51;;;;;;;41.60;25.57;;;0.50;99.90;;;;;;5035201;28;20026;-72
2022/01/16 09:31:17;;;;;;;40.33;24.50;;;0.50;99.90;;;;;;5034203;28;20127;-72
2022/01/16 09:33:43;;;;;;;38.63;24.60;;;0.60;99.90;;;;;;5034733;28;20394;-73
2022/01/16 09:36:09;;;;;;;37.97;23.60;;;0.70;99.90;;;;;;5035439;28;20034;-72
2022/01/16 09:38:39;;;;;;;35.27;21.30;;;0.80;99.90;;;;;;5033572;28;20111;-72
2022/01/16 09:41:05;;;;;;;35.23;21.60;;;0.90;99.90;;;;;;5034735;28;20025;-72
2022/01/16 09:43:32;;;;;;;33.03;21.57;;;1.10;99.90;;;;;;5034836;28;20033;-72
2022/01/16 09:45:58;;;;;;;30.53;18.50;;;1.10;99.90;;;;;;5034967;28;20029;-72
2022/01/16 09:48:24;;;;;;;31.83;19.60;;;1.30;99.90;;;;;;5034870;28;20025;-72
2022/01/16 09:50:50;;;;;;;30.83;19.17;;;1.50;99.90;;;;;;5033666;28;20048;-72
2022/01/16 09:53:17;;;;;;;33.10;19.10;;;1.50;99.90;;;;;;5034193;28;20024;-72
2022/01/16 09:55:43;;;;;;;26.70;17.27;;;1.60;99.90;;;;;;5034991;28;20481;-72
2022/01/16 09:58:08;;;;;;;29.10;17.60;;;1.70;99.90;;;;;;5034464;28;20097;-72
2022/01/16 10:00:35;;;;;;;28.40;17.20;;;1.90;99.90;;;;;;5033126;28;20121;-71
2022/01/16 10:03:02;;;;;;;29.23;18.00;;;2.00;99.90;;;;;;5034607;28;20454;-72
2022/01/16 10:05:36;;;;;;;27.83;16.97;;;2.00;99.90;;;;;;5034554;28;20049;-72
2022/01/16 10:08:06;;;;;;;26.03;15.67;;;2.20;99.90;;;;;;5034108;28;20025;-72
2022/01/16 10:10:43;;;;;;;22.70;15.33;;;2.30;99.90;;;;;;5034405;28;20021;-71
2022/01/16 10:13:24;;;;;;;21.27;13.63;;;2.40;99.90;;;;;;5033104;28;20029;-71
2022/01/16 10:15:54;;;;;;;23.43;14.10;;;2.60;99.90;;;;;;5034036;28;20437;-72
2022/01/16 10:18:38;;;;;;;21.90;13.23;;;2.80;99.90;;;;;;5034129;28;20018;-72
2022/01/16 10:21:05;;;;;;;22.23;13.97;;;3.10;99.90;;;;;;5034050;28;20045;-71
2022/01/16 10:23:38;;;;;;;20.37;13.20;;;3.30;99.90;;;;;;5034115;28;20070;-73
2022/01/16 10:26:04;;;;;;;22.30;14.50;;;3.50;99.90;;;;;;5032485;28;20021;-73
2022/01/16 10:28:29;;;;;;;22.43;14.37;;;3.50;99.90;;;;;;5034160;28;20454;-73
2022/01/16 10:30:57;;;;;;;21.47;14.77;;;3.40;99.90;;;;;;5033696;28;20462;-73
2022/01/16 10:33:26;;;;;;;23.23;15.33;;;3.40;99.90;;;;;;5033717;28;20367;-73
2022/01/16 10:35:54;;;;;;;23.87;14.37;;;3.30;99.90;;;;;;5033605;28;20022;-73
2022/01/16 10:38:22;;;;;;;22.07;14.53;;;3.30;99.90;;;;;;5033513;28;20069;-73
2022/01/16 10:40:50;;;;;;;20.77;13.60;;;3.20;99.90;;;;;;5034098;28;20336;-73
2022/01/16 10:43:35;;;;;;;24.10;14.67;;;3.30;99.90;;;;;;5033589;28;20018;-73
2022/01/16 10:46:00;;;;;;;22.23;14.33;;;3.30;99.90;;;;;;5033669;28;20058;-73
2022/01/16 10:48:26;;;;;;;23.40;15.70;;;3.30;99.90;;;;;;5033619;28;20114;-70
2022/01/16 10:50:51;;;;;;;21.40;13.60;;;3.30;99.90;;;;;;5033312;28;20052;-72
2022/01/16 10:53:22;;;;;;;23.13;14.87;;;3.30;99.90;;;;;;5033235;28;20116;-72
2022/01/16 10:55:53;;;;;;;23.83;14.97;;;3.40;99.90;;;;;;5033618;28;20075;-73
2022/01/16 10:58:38;;;;;;;23.27;14.67;;;3.30;99.90;;;;;;5033332;28;20079;-73
2022/01/16 11:01:14;;;;;;;;;;;3.30;99.90;;;;;;5033624;28;20029;-73
2022/01/16 11:03:45;;;;;;;21.90;13.77;;;3.40;99.90;;;;;;5032672;28;19909;-73
2022/01/16 11:06:15;;;;;;;24.10;15.33;;;3.40;99.90;;;;;;5033570;28;20037;-73
2022/01/16 11:08:52;;;;;;;22.80;13.90;;;3.60;99.90;;;;;;5033311;28;20029;-73
2022/01/16 11:11:21;;;;;;;19.97;13.37;;;3.70;99.90;;;;;;5033231;28;20426;-73
2022/01/16 11:13:48;;;;;;;21.47;13.87;;;3.80;99.90;;;;;;5031566;28;20112;-72
2022/01/16 11:16:13;;;;;;;21.03;14.20;;;3.90;99.90;;;;;;5032882;28;20053;-72
2022/01/16 11:18:40;;;;;;;20.73;13.97;;;3.90;99.90;;;;;;5033061;28;20056;-72
2022/01/16 11:26:16;;;;;;;20.73;13.37;;;4.20;99.90;;;;;;5033036;28;20033;-72
2022/01/16 11:28:42;;;;;;;22.23;14.40;;;4.20;99.90;;;;;;5033040;28;20030;-72
2022/01/16 11:31:11;;;;;;;20.33;14.00;;;4.30;99.90;;;;;;5033075;28;20103;-72
2022/01/16 11:33:38;;;;;;;19.87;13.50;;;4.30;99.90;;;;;;5032690;28;20026;-72
2022/01/16 11:36:16;;;;;;;20.90;13.57;;;4.40;99.90;;;;;;5033515;28;20175;-72
2022/01/16 11:38:44;;;;;;;21.10;13.07;;;4.40;99.90;;;;;;5032063;28;20068;-71
2022/01/16 11:41:19;;;;;;;21.43;13.77;;;4.40;99.90;;;;;;5030118;28;20037;-67
2022/01/16 11:43:47;;;;;;;20.17;13.48;;;4.30;99.90;;;;;;5029755;28;20032;-77
2022/01/16 11:46:14;;;;;;;22.17;13.33;;;4.30;99.90;;;;;;5032042;28;20026;-77
2022/01/16 11:48:41;;;;;;;21.73;13.73;;;4.30;99.90;;;;;;5031356;28;20028;-78
2022/01/16 11:51:34;;;;;;;21.23;13.43;;;4.30;99.90;;;;;;5031713;28;20032;-78
2022/01/16 11:54:06;;;;;;;20.87;13.30;;;4.30;99.90;;;;;;5032071;28;20034;-82
2022/01/16 11:56:38;;;;;;;23.27;13.87;;;4.30;99.90;;;;;;5032517;28;20446;-82
2022/01/16 11:59:23;;;;;;;23.00;14.00;;;4.50;99.90;;;;;;5031040;28;20738;-82
2022/01/16 12:01:56;;;;;;;21.42;14.77;;;4.60;99.90;;;;;;5022989;28;20026;-82
2022/01/16 12:04:28;;;;;;;20.17;14.50;;;4.50;99.90;;;;;;5031300;28;20033;-80
2022/01/16 12:06:54;;;;;;;25.13;13.80;;;4.60;99.90;;;;;;5031457;28;20025;-80
2022/01/16 12:12:12;;;;;;;24.63;14.60;;;4.70;99.90;;;;;;5032300;28;20049;-80
2022/01/16 12:14:58;;;;;;;22.10;13.43;;;4.70;99.90;;;;;;5032893;28;20025;-80
2022/01/16 12:17:31;;;;;;;21.57;13.03;;;5.00;99.90;;;;;;5035132;28;20033;-81
2022/01/16 12:19:57;;;;;;;19.57;12.90;;;5.10;99.90;;;;;;5034813;28;20481;-80
2022/01/16 12:22:42;;;;;;;21.67;13.63;;;5.50;99.90;;;;;;5035986;28;20443;-79
2022/01/16 12:25:29;;;;;;;20.17;13.53;;;5.40;99.90;;;;;;5035538;28;20021;-79
2022/01/16 12:28:01;;;;;;;20.33;12.97;;;5.40;99.90;;;;;;5026938;28;20029;-82
2022/01/16 12:30:51;;;;;;;20.60;13.43;;;5.60;99.90;;;;;;5029187;28;20025;-82
2022/01/16 12:33:36;;;;;;;20.23;13.20;;;5.60;99.90;;;;;;5028865;28;20356;-82
2022/01/16 12:36:12;;;;;;;23.03;14.17;;;5.50;99.90;;;;;;5029448;28;20041;-81
2022/01/16 12:38:49;;;;;;;21.10;13.50;;;5.60;99.90;;;;;;5033671;28;20064;-81
2022/01/16 12:41:21;;;;;;;25.03;13.70;;;5.60;99.90;;;;;;5027313;28;20025;-81
2022/01/16 12:43:54;;;;;;;19.17;12.53;;;5.70;99.90;;;;;;5031667;28;20030;-81
2022/01/16 12:46:24;;;;;;;19.93;13.03;;;5.80;99.90;;;;;;5033565;28;20032;-81
2022/01/16 12:48:52;;;;;;;19.47;13.30;;;5.80;99.90;;;;;;5035102;28;20401;-81
2022/01/16 12:51:23;;;;;;;21.50;13.33;;;5.80;99.90;;;;;;5037049;28;20100;-81
2022/01/16 12:53:51;;;;;;;20.00;13.67;;;5.90;99.90;;;;;;5052648;28;20032;-81
2022/01/16 12:56:32;;;;;;;23.50;13.00;;;5.90;99.90;;;;;;5054091;28;20028;-81
2022/01/16 12:59:11;;;;;;;19.97;13.60;;;5.70;99.90;;;;;;5053442;28;20049;-81
2022/01/16 13:01:46;;;;;;;21.00;13.57;;;5.60;99.90;;;;;;5046280;28;20117;-81
2022/01/16 13:04:28;;;;;;;21.92;13.82;;;5.70;99.90;;;;;;5039948;28;20063;-81
2022/01/16 13:07:03;;;;;;;18.17;11.53;;;5.90;99.90;;;;;;5031194;28;20032;-80
2022/01/16 13:09:29;;;;;;;19.73;13.40;;;5.80;99.90;;;;;;5033509;28;20026;-81
2022/01/16 13:11:59;;;;;;;20.17;12.87;;;5.90;99.90;;;;;;5033380;28;20030;-81
2022/01/16 13:14:28;;;;;;;20.87;13.50;;;5.90;99.90;;;;;;5034056;28;20029;-81
2022/01/16 13:16:56;;;;;;;18.53;13.07;;;5.90;99.90;;;;;;5034008;28;20479;-81
2022/01/16 13:19:38;;;;;;;20.33;12.87;;;5.80;99.90;;;;;;5032831;28;20413;-81
2022/01/16 13:22:11;;;;;;;20.43;12.37;;;5.90;99.90;;;;;;5033935;28;20025;-80